Time;durP1;ratioP1;P1;durP2;ratioP2;P2;SDS_P1;SDS_P2;PMS_P1;PMS_P2;Temp;Humidity;BMP_temperature;BMP_pressure;BME280_temperature;BME280_humidity;BME280_pressure;Samples;Min_cycle;Max_cycle;Signal;HPM_P1;HPM_P2
2023/07/21 00:00:43;;;;;;;8.47;4.93;;;;;;;-141.97;51.96;47346.09;5024692;28;20178;-77
2023/07/21 00:03:08;;;;;;;9.33;4.77;;;;;;;-141.97;51.53;47348.03;5026159;28;20193;-76
2023/07/21 00:05:34;;;;;;;11.33;5.00;;;;;;;-141.97;51.29;47359.56;5024348;28;20189;-76
2023/07/21 00:07:59;;;;;;;7.33;4.50;;;;;;;-141.97;50.83;47369.16;5027265;28;20190;-76
2023/07/21 00:10:25;;;;;;;10.07;4.40;;;;;;;-141.97;50.33;47338.41;5028984;28;20243;-76
2023/07/21 00:12:50;;;;;;;10.40;5.43;;;;;;;-141.97;50.49;47299.97;5025397;28;20197;-76
2023/07/21 00:15:18;;;;;;;10.07;5.57;;;;;;;-141.97;50.70;47348.03;5024914;28;20194;-76
2023/07/21 00:17:47;;;;;;;10.07;5.57;;;;;;;-141.97;50.59;47382.63;5024704;28;20261;-76
2023/07/21 00:20:15;;;;;;;8.73;4.90;;;;;;;-141.97;50.32;47361.47;5013838;28;20265;-77
2023/07/21 00:22:41;;;;;;;10.20;5.17;;;;;;;-141.97;50.30;47355.72;5024589;28;20257;-76
2023/07/21 00:25:13;;;;;;;8.87;4.90;;;;;;;-141.97;50.04;47398.00;5024498;28;20300;-77
2023/07/21 00:27:39;;;;;;;8.07;4.80;;;;;;;-141.97;50.17;47271.16;5024839;28;20193;-77
2023/07/21 00:30:07;;;;;;;7.37;4.60;;;;;;;-141.97;50.90;47386.47;5024252;28;20281;-76
2023/07/21 00:32:37;;;;;;;9.27;4.57;;;;;;;-141.97;51.42;47384.53;5024307;28;20259;-76
2023/07/21 00:35:05;;;;;;;12.90;5.10;;;;;;;-141.97;51.56;47382.63;5024356;28;20268;-76
2023/07/21 00:37:30;;;;;;;11.80;5.20;;;;;;;-141.97;52.03;47394.16;5024221;28;20229;-75
2023/07/21 00:39:56;;;;;;;10.97;5.00;;;;;;;-141.97;51.53;47380.69;5023490;28;20834;-77
2023/07/21 00:42:21;;;;;;;11.10;5.50;;;;;;;-141.97;51.27;47367.25;5023850;28;20178;-76
2023/07/21 00:44:47;;;;;;;7.77;5.23;;;;;;;-141.97;51.16;47369.16;5023972;28;20269;-76
2023/07/21 00:47:14;;;;;;;20.50;12.27;;;;;;;-141.97;51.12;47484.47;5024523;28;20178;-76
2023/07/21 00:49:39;;;;;;;9.53;6.10;;;;;;;-141.97;50.87;47361.47;5023892;28;20691;-76
2023/07/21 00:52:05;;;;;;;7.53;4.87;;;;;;;-141.97;51.04;47388.38;5024595;28;20186;-76
2023/07/21 00:54:31;;;;;;;9.07;5.20;;;;;;;-141.97;51.10;47382.63;5023872;28;20693;-76
2023/07/21 00:56:57;;;;;;;11.77;5.23;;;;;;;-141.97;51.25;47386.47;5023712;28;20256;-76
2023/07/21 00:59:23;;;;;;;9.13;5.13;;;;;;;-141.97;51.16;47376.84;5022898;28;20186;-76
2023/07/21 01:01:48;;;;;;;8.97;5.23;;;;;;;-141.97;51.13;47388.38;5023819;28;20174;-76
2023/07/21 01:04:13;;;;;;;8.93;5.37;;;;;;;-141.97;51.10;47415.28;5022087;28;20182;-76
2023/07/21 01:06:41;;;;;;;10.50;5.27;;;;;;;-141.97;51.16;47417.22;5024130;28;20189;-76
2023/07/21 01:09:08;;;;;;;11.03;5.40;;;;;;;-141.97;51.04;47367.25;5023878;28;20916;-75
2023/07/21 01:11:35;;;;;;;10.37;5.60;;;;;;;-141.97;51.27;47361.47;5023155;28;20277;-76
2023/07/21 01:14:04;;;;;;;12.53;6.07;;;;;;;-141.97;50.89;47503.69;5023595;28;20214;-75
2023/07/21 01:16:34;;;;;;;10.00;5.07;;;;;;;-141.97;51.43;47376.84;5023248;28;20224;-75
2023/07/21 01:19:01;;;;;;;8.10;5.50;;;;;;;-141.97;51.42;47384.53;5019175;28;20723;-76
2023/07/21 01:21:45;;;;;;;9.20;5.20;;;;;;;-141.97;52.00;47390.31;5022824;28;20550;-76
2023/07/21 01:24:27;;;;;;;12.00;5.20;;;;;;;-141.97;52.53;47380.69;5023724;28;20185;-76
2023/07/21 01:26:55;;;;;;;8.13;4.87;;;;;;;-141.97;52.78;47388.38;5023506;28;20182;-76
2023/07/21 01:29:23;;;;;;;10.73;5.73;;;;;;;-141.97;53.03;47399.91;5022768;28;20182;-76
2023/07/21 01:31:51;;;;;;;8.17;5.00;;;;;;;-141.97;52.77;47392.22;5023721;28;20484;-76
2023/07/21 01:34:17;;;;;;;8.67;5.20;;;;;;;-141.97;52.83;47382.63;5023578;28;20207;-76
2023/07/21 01:36:44;;;;;;;8.60;5.10;;;;;;;-141.97;52.72;47407.59;5022930;28;20214;-76
2023/07/21 01:39:10;;;;;;;8.73;5.13;;;;;;;-141.97;52.84;47376.84;5023046;28;20186;-76
2023/07/21 01:41:36;;;;;;;9.67;5.20;;;;;;;-141.97;52.58;47388.38;5022999;28;21065;-76
2023/07/21 01:44:01;;;;;;;9.10;5.10;;;;;;;-141.97;53.13;47384.53;5023314;28;20178;-76
2023/07/21 01:46:27;;;;;;;9.40;5.33;;;;;;;-141.97;53.40;47392.22;5022941;28;20842;-75
2023/07/21 01:48:52;;;;;;;10.87;5.60;;;;;;;-141.97;53.22;47353.78;5022962;28;20283;-76
2023/07/21 01:51:20;;;;;;;12.07;6.17;;;;;;;-141.97;53.28;47392.22;5023933;28;20224;-75
2023/07/21 01:53:56;;;;;;;13.37;6.30;;;;;;;-141.97;53.72;47351.88;5028906;28;20186;-75
2023/07/21 01:56:32;;;;;;;15.17;6.13;;;;;;;-141.97;54.50;47369.16;5029715;28;20188;-75
2023/07/21 01:59:04;;;;;;;13.07;6.50;;;;;;;-141.97;54.83;47392.22;5029169;28;20713;-75
2023/07/21 02:01:30;;;;;;;12.20;6.10;;;;;;;-141.97;54.94;47409.53;5027116;28;20259;-75
2023/07/21 02:03:56;;;;;;;12.77;6.37;;;;;;;-141.97;54.66;47365.31;5027141;28;20181;-75
2023/07/21 02:06:21;;;;;;;11.03;6.83;;;;;;;-141.97;54.77;47380.69;5026129;28;20177;-75
2023/07/21 02:08:47;;;;;;;16.67;6.40;;;;;;;-141.97;54.95;47373.00;5027337;28;20272;-76
2023/07/21 02:11:12;;;;;;;10.87;6.30;;;;;;;-141.97;55.52;47369.16;5027416;28;20642;-76
2023/07/21 02:13:39;;;;;;;15.47;7.30;;;;;;;-141.97;56.29;47411.44;5026546;28;20265;-76
2023/07/21 02:16:04;;;;;;;14.67;7.53;;;;;;;-141.97;56.82;47415.28;5026769;28;20185;-76
2023/07/21 02:18:33;;;;;;;18.10;8.30;;;;;;;-141.97;56.97;47403.75;5026956;28;20240;-76
2023/07/21 02:21:02;;;;;;;13.97;7.63;;;;;;;-141.97;57.66;47415.28;5016862;28;20240;-77
2023/07/21 02:23:28;;;;;;;15.57;8.50;;;;;;;-141.97;57.43;47407.59;5026467;28;20355;-77
2023/07/21 02:25:53;;;;;;;14.90;8.20;;;;;;;-141.97;57.29;47413.38;5026859;28;20304;-76
2023/07/21 02:28:18;;;;;;;13.77;7.40;;;;;;;-141.97;57.10;47584.44;5026915;28;20185;-77
2023/07/21 02:30:44;;;;;;;10.57;6.73;;;;;;;-141.97;56.63;47384.53;5026716;28;20197;-76
2023/07/21 02:33:10;;;;;;;13.67;7.00;;;;;;;-141.97;56.40;47409.53;5026479;28;20248;-76
2023/07/21 02:35:35;;;;;;;12.73;6.47;;;;;;;-141.97;55.98;47388.38;5026725;28;20178;-77
2023/07/21 02:38:03;;;;;;;11.17;6.73;;;;;;;-141.97;55.84;47380.69;5026638;28;20229;-75
2023/07/21 02:40:30;;;;;;;13.23;6.10;;;;;;;-141.97;55.65;47442.19;5024159;28;20178;-76
2023/07/21 02:42:56;;;;;;;11.73;5.87;;;;;;;-141.97;55.44;47411.44;5027035;28;20190;-76
2023/07/21 02:45:22;;;;;;;12.97;6.83;;;;;;;-141.97;55.31;47363.41;5029039;28;20259;-76
2023/07/21 02:47:47;;;;;;;11.13;6.83;;;;;;;-141.97;55.35;47449.88;5030860;28;20178;-76
2023/07/21 02:50:14;;;;;;;8.93;6.67;;;;;;;-141.97;55.62;47380.69;5026067;28;20273;-76
2023/07/21 02:52:40;;;;;;;11.17;6.10;;;;;;;-141.97;56.15;47403.75;5026409;28;20177;-77
2023/07/21 02:55:07;;;;;;;11.77;6.57;;;;;;;-141.97;56.69;47399.91;5027154;28;20289;-76
2023/07/21 02:57:33;;;;;;;7.47;5.93;;;;;;;-141.97;56.96;47419.13;5025899;28;20296;-77
2023/07/21 02:59:59;;;;;;;10.97;6.70;;;;;;;-141.97;57.09;47411.44;5026549;28;20186;-79
2023/07/21 03:02:24;;;;;;;11.57;7.00;;;;;;;-141.97;56.50;47407.59;5025425;28;20189;-77
2023/07/21 03:04:50;;;;;;;12.00;6.57;;;;;;;-141.97;57.00;47409.53;5025622;28;20194;-77
2023/07/21 03:07:16;;;;;;;11.63;6.63;;;;;;;-141.97;57.33;47411.44;5025920;28;20221;-76
2023/07/21 03:09:42;;;;;;;9.77;6.43;;;;;;;-141.97;57.80;47403.75;5024388;28;20295;-77
2023/07/21 03:12:07;;;;;;;10.47;6.33;;;;;;;-141.97;57.99;47405.69;5025500;28;20265;-76
2023/07/21 03:14:33;;;;;;;10.97;6.00;;;;;;;-141.97;57.46;47409.53;5025506;28;20206;-76
2023/07/21 03:16:58;;;;;;;12.87;6.83;;;;;;;-141.97;57.34;47526.75;5025922;28;20201;-76
2023/07/21 03:19:23;;;;;;;12.37;6.67;;;;;;;-141.97;57.17;47428.75;5025641;28;20185;-76
2023/07/21 03:21:50;;;;;;;9.33;5.87;;;;;;;-141.97;57.46;47451.81;5014813;28;20237;-76
2023/07/21 03:24:15;;;;;;;10.53;6.33;;;;;;;-141.97;56.90;47415.28;5023835;28;20198;-76
2023/07/21 03:26:41;;;;;;;10.43;6.63;;;;;;;-141.97;56.93;47380.69;5025675;28;20259;-76
2023/07/21 03:29:06;;;;;;;9.97;6.67;;;;;;;-141.97;56.79;47399.91;5025459;28;20181;-76
2023/07/21 03:31:32;;;;;;;19.87;10.00;;;;;;;-141.97;57.67;47384.53;5025080;28;20185;-78
2023/07/21 03:33:58;;;;;;;20.33;9.50;;;;;;;-141.97;57.52;47388.38;5025529;28;20194;-76
2023/07/21 03:36:23;;;;;;;27.37;10.27;;;;;;;-141.97;57.08;47426.81;5025129;28;20213;-76
2023/07/21 03:38:49;;;;;;;35.30;10.87;;;;;;;-141.97;57.11;47398.00;5025489;28;20244;-76
2023/07/21 03:41:14;;;;;;;50.83;13.70;;;;;;;-141.97;56.48;47357.63;5023908;28;20182;-76
2023/07/21 03:43:40;;;;;;;24.03;9.43;;;;;;;-141.97;56.12;47396.06;5025523;28;20280;-75
2023/07/21 03:46:07;;;;;;;15.10;6.90;;;;;;;-141.97;56.83;47396.06;5024668;28;20193;-76
2023/07/21 03:48:33;;;;;;;15.30;6.70;;;;;;;-141.97;57.20;47405.69;5023483;28;20497;-76
2023/07/21 03:51:06;;;;;;;11.03;6.80;;;;;;;-141.97;57.02;47378.78;5024430;28;20181;-76
2023/07/21 03:53:32;;;;;;;11.90;7.27;;;;;;;-141.97;56.94;47405.69;5025016;28;20222;-76
2023/07/21 03:55:58;;;;;;;15.33;7.00;;;;;;;-141.97;56.78;47447.97;5024602;28;20281;-76
2023/07/21 03:58:25;;;;;;;13.63;7.30;;;;;;;-141.97;56.09;47384.53;5025407;28;20217;-77
2023/07/21 04:00:50;;;;;;;12.90;7.80;;;;;;;-141.97;55.79;47411.44;5024391;28;20192;-77
2023/07/21 04:03:19;;;;;;;12.53;7.20;;;;;;;-141.97;55.67;47409.53;5024912;28;20290;-77
2023/07/21 04:05:45;;;;;;;19.50;7.40;;;;;;;-141.97;55.09;47465.25;5025711;28;20182;-77
2023/07/21 04:08:10;;;;;;;14.80;7.83;;;;;;;-141.97;55.23;47396.06;5024507;28;20981;-76
2023/07/21 04:10:40;;;;;;;14.37;7.20;;;;;;;-141.97;55.00;47421.06;5025058;28;21112;-76
2023/07/21 04:13:07;;;;;;;15.50;7.50;;;;;;;-141.97;55.09;47407.59;5025486;28;20281;-77
2023/07/21 04:15:32;;;;;;;13.87;7.50;;;;;;;-141.97;54.70;47422.97;5024775;28;20189;-77
2023/07/21 04:17:57;;;;;;;13.17;7.70;;;;;;;-141.97;54.52;47396.06;5023945;28;20213;-76
2023/07/21 04:20:23;;;;;;;20.03;8.00;;;;;;;-141.97;54.81;47392.22;5013357;28;20296;-76
2023/07/21 04:22:49;;;;;;;15.10;7.20;;;;;;;-141.97;55.57;47369.16;5024829;28;20178;-76
2023/07/21 04:25:17;;;;;;;12.03;7.23;;;;;;;-141.97;55.23;47415.28;5025177;28;20218;-77
2023/07/21 04:27:42;;;;;;;13.83;7.17;;;;;;;-141.97;54.43;47409.53;5024289;28;20218;-77
2023/07/21 04:30:08;;;;;;;11.77;6.90;;;;;;;-141.97;54.76;47388.38;5024878;28;20222;-76
2023/07/21 04:32:34;;;;;;;10.67;6.77;;;;;;;-141.97;53.93;47361.47;5023881;28;20745;-77
2023/07/21 04:34:59;;;;;;;14.57;7.20;;;;;;;-141.97;53.47;47415.28;5024741;28;20189;-76
2023/07/21 04:37:25;;;;;;;15.67;7.20;;;;;;;-141.97;53.10;47432.59;5024152;28;20845;-76
2023/07/21 04:39:51;;;;;;;12.57;7.03;;;;;;;-141.97;53.08;47426.81;5024452;28;20198;-77
2023/07/21 04:42:16;;;;;;;15.53;7.17;;;;;;;-141.97;52.55;47424.91;5024507;28;20225;-76
2023/07/21 04:44:44;;;;;;;13.43;7.23;;;;;;;-141.97;52.42;47519.06;5024547;28;20208;-77
2023/07/21 04:47:10;;;;;;;13.47;7.73;;;;;;;-141.97;52.02;47378.78;5024695;28;20178;-77
2023/07/21 04:49:35;;;;;;;23.73;9.10;;;;;;;-141.97;51.79;47365.31;5024051;28;20185;-77
2023/07/21 04:52:02;;;;;;;12.70;6.77;;;;;;;-141.97;51.09;47349.94;5024083;28;20299;-77
2023/07/21 04:54:28;;;;;;;15.73;7.23;;;;;;;-141.97;50.75;47411.44;5024393;28;20332;-76
2023/07/21 04:56:53;;;;;;;15.43;7.50;;;;;;;-141.97;50.61;47363.41;5024729;28;20336;-77
2023/07/21 04:59:19;;;;;;;15.93;6.73;;;;;;;-141.97;50.35;47378.78;5024391;28;20487;-76
2023/07/21 05:01:48;;;;;;;18.40;6.82;;;;;;;-141.97;49.83;47405.69;5023215;28;20183;-77
2023/07/21 05:04:19;;;;;;;14.13;6.60;;;;;;;-141.97;49.91;47363.41;5024238;28;20189;-77
2023/07/21 05:06:46;;;;;;;11.48;6.80;;;;;;;-141.97;49.34;47398.00;5024419;28;20185;-77
2023/07/21 05:09:13;;;;;;;16.30;7.35;;;;;;;-141.97;49.40;47353.78;5023759;28;20214;-77
2023/07/21 05:11:38;;;;;;;14.15;6.45;;;;;;;-141.97;48.94;47384.53;5023146;28;20186;-77
2023/07/21 05:14:04;;;;;;;12.48;6.90;;;;;;;-141.97;48.28;47376.84;5023903;28;20277;-76
2023/07/21 05:16:30;;;;;;;12.20;6.18;;;;;;;-141.97;47.66;47398.00;5023973;28;20189;-77
2023/07/21 05:18:56;;;;;;;11.68;6.38;;;;;;;-141.97;47.68;47250.00;5023891;28;20900;-77
2023/07/21 05:21:21;;;;;;;9.15;6.30;;;;;;;-141.97;47.30;47336.50;5016756;28;20294;-77
2023/07/21 05:23:47;;;;;;;15.52;6.70;;;;;;;-141.97;47.18;47384.53;5027274;28;20185;-77
2023/07/21 05:26:12;;;;;;;14.95;6.72;;;;;;;-141.97;46.91;47521.00;5022417;28;20205;-77
2023/07/21 05:28:38;;;;;;;15.20;6.97;;;;;;;-141.97;47.51;47363.41;5023782;28;20268;-77
2023/07/21 05:31:03;;;;;;;17.08;7.63;;;;;;;-141.97;47.25;47359.56;5023213;28;20227;-77
2023/07/21 05:33:29;;;;;;;13.32;6.80;;;;;;;-141.97;46.84;47353.78;5025234;28;20254;-76
2023/07/21 05:36:09;;;;;;;10.73;6.30;;;;;;;-141.97;46.14;47361.47;5026179;28;20197;-77
2023/07/21 05:38:37;;;;;;;12.05;7.30;;;;;;;-141.97;46.07;47361.47;5045724;28;20912;-76
2023/07/21 05:41:04;;;;;;;12.80;7.07;;;;;;;-141.97;46.42;47353.78;5046020;28;20219;-77
2023/07/21 05:43:30;;;;;;;12.13;6.80;;;;;;;-141.97;46.06;47365.31;5044771;28;20186;-76
2023/07/21 05:45:56;;;;;;;12.35;7.43;;;;;;;-141.97;45.63;47276.91;5043939;28;21507;-77
2023/07/21 05:48:21;;;;;;;12.90;7.38;;;;;;;-141.97;45.28;47363.41;5043744;28;20222;-77
2023/07/21 05:50:47;;;;;;;10.80;6.82;;;;;;;-141.97;45.04;47359.56;5042917;28;20209;-76
2023/07/21 05:53:12;;;;;;;12.35;6.82;;;;;;;-141.97;44.77;47351.88;5043217;28;20192;-77
2023/07/21 05:55:42;;;;;;;9.85;6.82;;;;;;;-141.97;44.51;47346.09;5043121;28;20252;-77
2023/07/21 05:58:08;;;;;;;13.70;7.13;;;;;;;-141.97;44.88;47346.09;5042829;28;20839;-77
2023/07/21 06:00:36;;;;;;;11.45;7.00;;;;;;;-141.97;45.40;47344.19;5043921;28;20191;-76
2023/07/21 06:03:02;;;;;;;12.20;6.85;;;;;;;-141.97;45.63;47365.31;5042990;28;20183;-76
2023/07/21 06:05:29;;;;;;;10.73;6.60;;;;;;;-141.97;45.72;47355.72;5043081;28;20201;-78
2023/07/21 06:07:55;;;;;;;12.45;7.13;;;;;;;-141.97;45.43;47369.16;5041448;28;20273;-76
2023/07/21 06:10:21;;;;;;;9.93;6.95;;;;;;;-141.97;46.01;47346.09;5042474;28;20197;-77
2023/07/21 06:12:48;;;;;;;9.68;6.65;;;;;;;-141.97;45.74;47374.94;5043502;28;20194;-77
2023/07/21 06:15:13;;;;;;;12.40;7.00;;;;;;;-141.97;46.21;47338.41;5042481;28;20985;-77
2023/07/21 06:17:39;;;;;;;10.38;6.70;;;;;;;-141.97;46.02;47355.72;5042453;28;20296;-77
2023/07/21 06:20:06;;;;;;;10.05;6.72;;;;;;;-141.97;45.61;47328.81;5042660;28;20877;-77
2023/07/21 06:22:31;;;;;;;8.45;6.45;;;;;;;-141.97;45.57;47342.25;5031427;28;20280;-78
2023/07/21 06:24:57;;;;;;;14.02;7.13;;;;;;;-141.97;44.65;47384.53;5042446;28;20223;-74
2023/07/21 06:27:22;;;;;;;10.07;6.65;;;;;;;-141.97;44.08;47361.47;5042704;28;20230;-77
2023/07/21 06:29:47;;;;;;;10.57;6.57;;;;;;;-141.97;44.30;47346.09;5043482;28;20245;-77
2023/07/21 06:32:13;;;;;;;8.95;6.68;;;;;;;-141.97;43.42;47409.53;5042055;28;20187;-76
2023/07/21 06:34:38;;;;;;;11.50;6.50;;;;;;;-141.97;43.74;47326.88;5042689;28;20497;-76
2023/07/21 06:37:04;;;;;;;17.13;6.93;;;;;;;-141.97;43.26;47357.63;5041755;28;20223;-77
2023/07/21 06:39:29;;;;;;;10.32;6.38;;;;;;;-141.97;43.41;47301.91;5042758;28;20201;-76
2023/07/21 06:41:55;;;;;;;13.93;7.00;;;;;;;-141.97;43.18;47323.03;5045839;28;20201;-77
2023/07/21 06:44:20;;;;;;;39.55;8.73;;;;;;;-141.97;43.25;47324.97;5046889;28;20298;-76
2023/07/21 06:46:51;;;;;;;11.85;7.20;;;;;;;-141.97;42.28;47326.88;5045932;28;20218;-76
2023/07/21 06:49:16;;;;;;;10.80;6.57;;;;;;;-141.97;42.20;47309.59;5046315;28;20773;-77
2023/07/21 06:51:42;;;;;;;14.73;6.72;;;;;;;-141.97;41.15;47317.28;5045872;28;20188;-77
2023/07/21 06:54:08;;;;;;;10.98;6.75;;;;;;;-141.97;41.57;47319.19;5045976;28;21073;-77
2023/07/21 06:56:34;;;;;;;15.82;7.50;;;;;;;-141.97;41.40;47315.34;5045986;28;20267;-77
2023/07/21 06:59:00;;;;;;;12.60;6.75;;;;;;;-141.97;40.82;47299.97;5045744;28;20287;-76
2023/07/21 07:01:25;;;;;;;9.45;6.45;;;;;;;-141.97;40.23;47298.06;5046074;28;20199;-77
2023/07/21 07:03:51;;;;;;;13.25;6.68;;;;;;;-141.97;39.60;47292.28;5045590;28;20639;-76
2023/07/21 07:06:17;;;;;;;13.02;6.38;;;;;;;-141.97;39.52;47299.97;5045498;28;20195;-78
2023/07/21 07:08:43;;;;;;;13.90;6.53;;;;;;;-141.97;39.28;47228.88;5045497;28;20673;-76
2023/07/21 07:11:09;;;;;;;12.48;6.55;;;;;;;-141.97;39.48;47313.44;5044984;28;20279;-77
2023/07/21 07:13:34;;;;;;;12.23;6.38;;;;;;;-141.97;40.22;47284.59;5045971;28;20188;-76
2023/07/21 07:16:00;;;;;;;13.25;6.60;;;;;;;-141.97;41.32;47280.75;5045962;28;20652;-76
2023/07/21 07:18:26;;;;;;;11.48;7.07;;;;;;;-141.97;40.49;47284.59;5046233;28;20251;-76
2023/07/21 07:20:52;;;;;;;11.52;7.03;;;;;;;-141.97;39.94;47288.44;5038118;28;20188;-76
2023/07/21 07:23:19;;;;;;;14.23;6.88;;;;;;;-141.97;39.78;47276.91;5044257;28;20249;-77
2023/07/21 07:25:52;;;;;;;9.88;6.55;;;;;;;-141.97;39.48;47301.91;5045723;28;20181;-76
2023/07/21 07:28:20;;;;;;;12.80;6.82;;;;;;;-141.97;39.45;47299.97;5045620;28;20697;-76
2023/07/21 07:30:47;;;;;;;14.73;7.57;;;;;;;-141.97;38.89;47311.50;5045041;28;20598;-76
2023/07/21 07:33:16;;;;;;;13.45;6.60;;;;;;;-141.97;38.03;47309.59;5043402;28;20212;-77
2023/07/21 07:35:52;;;;;;;13.02;6.95;;;;;;;-141.97;38.50;47190.44;5044585;28;20188;-76
2023/07/21 07:38:29;;;;;;;12.75;7.20;;;;;;;-141.97;38.52;47303.81;5044499;28;20214;-77
2023/07/21 07:41:01;;;;;;;11.98;6.45;;;;;;;-141.97;37.54;47269.22;5044559;28;20287;-77
2023/07/21 07:43:26;;;;;;;12.52;6.72;;;;;;;-141.97;37.45;47265.38;5044363;28;20199;-77
2023/07/21 07:45:52;;;;;;;12.25;6.35;;;;;;;-141.97;36.95;47238.47;5044982;28;20654;-77
2023/07/21 07:48:17;;;;;;;12.23;6.35;;;;;;;-141.97;36.21;47217.34;5044572;28;20211;-77
2023/07/21 07:50:43;;;;;;;15.25;6.75;;;;;;;-141.97;35.99;47192.34;5043359;28;20192;-76
2023/07/21 07:53:09;;;;;;;12.82;6.88;;;;;;;-141.97;36.35;47250.00;5045429;28;20173;-77
2023/07/21 07:55:44;;;;;;;12.38;6.60;;;;;;;-141.97;35.92;47246.16;5049389;28;20181;-77
2023/07/21 07:58:10;;;;;;;13.15;7.07;;;;;;;-141.97;36.41;47269.22;5046785;28;20209;-77
2023/07/21 08:00:38;;;;;;;12.77;6.78;;;;;;;-141.97;36.18;47261.53;5046276;28;20710;-77
2023/07/21 08:03:05;;;;;;;12.23;6.55;;;;;;;-141.97;35.04;47259.63;5045562;28;20178;-77
2023/07/21 08:05:41;;;;;;;12.10;6.68;;;;;;;-141.97;34.64;47296.13;5043199;28;20200;-77
2023/07/21 08:08:08;;;;;;;12.88;6.82;;;;;;;-141.97;35.01;47192.34;5044654;28;20185;-77
2023/07/21 08:10:34;;;;;;;10.85;6.03;;;;;;;-141.97;34.13;47219.25;5044563;28;20622;-78
2023/07/21 08:13:06;;;;;;;13.38;6.07;;;;;;;-141.97;33.35;47255.78;5044847;28;20661;-77
2023/07/21 08:15:32;;;;;;;11.75;6.30;;;;;;;-141.97;33.70;47223.09;5045126;28;20271;-76
2023/07/21 08:17:57;;;;;;;7.97;5.55;;;;;;;-141.97;32.30;47250.00;5045642;28;20643;-77
2023/07/21 08:20:24;;;;;;;12.00;6.47;;;;;;;-141.97;33.20;47230.78;5044705;28;20193;-76
2023/07/21 08:22:52;;;;;;;7.30;5.50;;;;;;;-141.97;33.17;47238.47;5035083;28;20283;-76
2023/07/21 08:25:20;;;;;;;11.23;5.78;;;;;;;-141.97;33.15;47211.56;5043994;28;20208;-76
2023/07/21 08:27:46;;;;;;;11.60;6.00;;;;;;;-141.97;33.43;47323.03;5044779;28;20232;-76
2023/07/21 08:30:12;;;;;;;7.78;5.53;;;;;;;-141.97;32.94;47207.72;5042421;28;20208;-76
2023/07/21 08:32:38;;;;;;;8.38;5.35;;;;;;;-141.97;33.17;47334.56;5044824;28;20193;-79
2023/07/21 08:35:05;;;;;;;11.23;5.72;;;;;;;-141.97;33.23;47242.31;5043710;28;20177;-77
2023/07/21 08:37:31;;;;;;;9.07;5.70;;;;;;;-141.97;33.22;47188.50;5044030;28;20244;-76
2023/07/21 08:39:57;;;;;;;7.75;5.38;;;;;;;-141.97;32.19;47242.31;5044585;28;20185;-76
2023/07/21 08:42:24;;;;;;;8.93;5.53;;;;;;;-141.97;31.97;47213.50;5043515;28;20736;-77
2023/07/21 08:44:52;;;;;;;10.55;5.25;;;;;;;-141.97;32.37;47223.09;5043774;28;20212;-76
2023/07/21 08:47:19;;;;;;;8.52;5.57;;;;;;;-141.97;32.83;47213.50;5044032;28;20642;-76
2023/07/21 08:49:45;;;;;;;11.07;5.60;;;;;;;-141.97;32.59;47244.25;5043565;28;20192;-77
2023/07/21 08:52:10;;;;;;;8.02;5.50;;;;;;;-141.97;32.07;47219.25;5044279;28;20530;-76
2023/07/21 08:54:35;;;;;;;8.73;5.65;;;;;;;-141.97;32.41;47234.63;5043753;28;20263;-77
2023/07/21 08:57:01;;;;;;;10.63;6.00;;;;;;;-141.97;31.98;47201.97;5044329;28;20216;-78
2023/07/21 08:59:27;;;;;;;9.95;5.82;;;;;;;-141.97;31.79;47219.25;5043401;28;20930;-77
2023/07/21 09:01:52;;;;;;;12.93;6.00;;;;;;;-141.97;31.50;47180.81;5042979;28;20280;-79
2023/07/21 09:04:20;;;;;;;9.38;6.18;;;;;;;-141.97;32.60;47186.59;5042611;28;20336;-77
2023/07/21 09:06:52;;;;;;;11.68;5.90;;;;;;;-141.97;32.61;47211.56;5043484;28;20250;-77
2023/07/21 09:09:22;;;;;;;9.82;6.40;;;;;;;-141.97;32.36;47207.72;5043506;28;20185;-77
2023/07/21 09:11:48;;;;;;;9.80;5.78;;;;;;;-141.97;32.80;47173.13;5044181;28;20185;-77
2023/07/21 09:14:14;;;;;;;11.13;5.90;;;;;;;-141.97;32.85;47215.41;5045615;28;20226;-77
2023/07/21 09:16:40;;;;;;;9.25;5.53;;;;;;;-141.97;32.78;47194.28;5047211;28;20239;-77
2023/07/21 09:19:06;;;;;;;7.90;5.63;;;;;;;-141.97;33.05;47190.44;5046077;28;20305;-78
2023/07/21 09:21:31;;;;;;;9.73;5.53;;;;;;;-141.97;32.74;47228.88;5031289;28;20797;-77
2023/07/21 09:24:02;;;;;;;8.88;5.65;;;;;;;-141.97;32.68;47203.88;5043468;28;20181;-77
2023/07/21 09:26:28;;;;;;;9.25;5.35;;;;;;;-141.97;32.29;47176.97;5043471;28;20182;-77
2023/07/21 09:28:53;;;;;;;8.32;4.93;;;;;;;-141.97;31.69;47117.41;5043562;28;20200;-77
2023/07/21 09:31:27;;;;;;;8.88;5.32;;;;;;;-141.97;31.51;47200.03;5044404;28;20181;-77
2023/07/21 09:33:52;;;;;;;7.07;4.90;;;;;;;-141.97;30.83;47134.69;5042782;28;20583;-79
2023/07/21 09:36:18;;;;;;;7.40;5.03;;;;;;;-141.97;31.29;47165.44;5043467;28;20625;-77
2023/07/21 09:38:44;;;;;;;7.82;5.57;;;;;;;-141.97;31.49;47157.75;5043653;28;20883;-77
2023/07/21 09:41:12;;;;;;;7.43;4.80;;;;;;;-141.97;31.08;47176.97;5043906;28;20185;-77
2023/07/21 09:43:39;;;;;;;9.02;5.10;;;;;;;-141.97;31.60;47219.25;5043035;28;20288;-77
2023/07/21 09:46:07;;;;;;;10.18;5.00;;;;;;;-141.97;31.15;47217.34;5042943;28;20208;-77
2023/07/21 09:48:35;;;;;;;7.60;4.90;;;;;;;-141.97;30.88;47184.66;5045171;28;20582;-77
2023/07/21 09:51:05;;;;;;;8.20;4.60;;;;;;;-141.97;30.03;47200.03;5042586;28;20259;-77
2023/07/21 09:53:34;;;;;;;6.97;4.40;;;;;;;-141.97;30.02;47173.13;5042497;28;20185;-76
2023/07/21 09:56:02;;;;;;;7.07;4.30;;;;;;;-141.97;29.94;47150.06;5042398;28;20234;-76
2023/07/21 09:58:29;;;;;;;6.75;4.50;;;;;;;-141.97;30.14;47211.56;5042915;28;20589;-77
2023/07/21 10:01:00;;;;;;;7.93;4.72;;;;;;;-141.97;29.82;47165.44;5043487;28;20192;-76
2023/07/21 10:03:26;;;;;;;6.63;4.20;;;;;;;-141.97;29.35;47142.38;5042607;28;20193;-77
2023/07/21 10:05:52;;;;;;;8.80;4.68;;;;;;;-141.97;29.59;47159.69;5043000;28;20193;-77
2023/07/21 10:08:18;;;;;;;8.15;4.50;;;;;;;-141.97;29.11;47175.06;5042818;28;20315;-78
2023/07/21 10:10:44;;;;;;;8.70;4.70;;;;;;;-141.97;29.42;47142.38;5042400;28;20292;-77
2023/07/21 10:13:11;;;;;;;5.45;4.35;;;;;;;-141.97;29.30;47176.97;5043027;28;20734;-77
2023/07/21 10:15:37;;;;;;;10.05;5.18;;;;;;;-141.97;30.22;47190.44;5044491;28;20211;-77
2023/07/21 10:18:13;;;;;;;8.55;4.80;;;;;;;-141.97;29.92;47180.81;5046676;28;20653;-77
2023/07/21 10:20:50;;;;;;;7.45;4.72;;;;;;;-141.97;30.61;47176.97;5047906;28;20196;-79
2023/07/21 10:23:18;;;;;;;9.25;4.90;;;;;;;-141.97;30.89;47217.34;5036156;28;20252;-76
2023/07/21 10:25:47;;;;;;;10.88;6.00;;;;;;;-141.97;30.95;47165.44;5046590;28;20719;-77
2023/07/21 10:28:15;;;;;;;10.43;5.55;;;;;;;-141.97;31.26;47194.28;5048732;28;20297;-76
2023/07/21 10:30:42;;;;;;;8.50;4.97;;;;;;;-141.97;31.48;47228.88;5050676;28;20181;-76
2023/07/21 10:33:17;;;;;;;7.38;4.70;;;;;;;-141.97;31.01;47203.88;5046766;28;20701;-77
2023/07/21 10:35:42;;;;;;;6.47;5.07;;;;;;;-141.97;30.72;47207.72;5046459;28;20193;-77
2023/07/21 10:38:14;;;;;;;9.10;5.13;;;;;;;-141.97;31.37;47196.19;5045677;28;20315;-76
2023/07/21 10:40:44;;;;;;;8.25;4.88;;;;;;;-141.97;31.70;47173.13;5045895;28;20189;-76
2023/07/21 10:43:10;;;;;;;10.25;5.40;;;;;;;-141.97;31.24;47190.44;5045826;28;20186;-77
2023/07/21 10:45:35;;;;;;;6.90;4.70;;;;;;;-141.97;30.99;47196.19;5046354;28;20255;-76
2023/07/21 10:48:12;;;;;;;8.73;5.28;;;;;;;-141.97;31.13;47213.50;5045323;28;20873;-77
2023/07/21 10:50:54;;;;;;;9.77;4.72;;;;;;;-141.97;30.26;47192.34;5045766;28;20272;-76
2023/07/21 10:53:26;;;;;;;6.25;4.57;;;;;;;-141.97;30.38;47186.59;5046253;28;20732;-77
2023/07/21 10:55:55;;;;;;;7.00;4.93;;;;;;;-141.97;29.87;47148.16;5046637;28;20223;-77
2023/07/21 10:58:20;;;;;;;6.70;4.65;;;;;;;-141.97;29.79;47167.38;5046449;28;20220;-77
2023/07/21 11:00:47;;;;;;;6.88;4.72;;;;;;;-141.97;30.72;47184.66;5045672;28;21114;-77
2023/07/21 11:03:13;;;;;;;8.45;4.90;;;;;;;-141.97;30.53;47442.19;5045575;28;20657;-76
2023/07/21 11:05:39;;;;;;;7.82;4.95;;;;;;;-141.97;30.37;47192.34;5045620;28;20193;-76
2023/07/21 11:08:04;;;;;;;10.48;5.30;;;;;;;-141.97;30.69;47186.59;5046294;28;20189;-76
2023/07/21 11:10:33;;;;;;;7.00;4.85;;;;;;;-141.97;30.37;47157.75;5046049;28;20238;-77